sensor_id;sensor_type;location;lat;lon;timestamp;temperature;humidity
3156;DHT22;1588;50.892;7.082;2023-02-26T00:03:07;-1.60;99.90
3156;DHT22;1588;50.892;7.082;2023-02-26T00:08:10;-1.70;99.90
3156;DHT22;1588;50.892;7.082;2023-02-26T00:13:12;-1.80;99.90
3156;DHT22;1588;50.892;7.082;2023-02-26T00:18:17;-1.70;99.90
3156;DHT22;1588;50.892;7.082;2023-02-26T00:23:20;-1.60;99.90
3156;DHT22;1588;50.892;7.082;2023-02-26T00:28:24;-1.30;99.90
3156;DHT22;1588;50.892;7.082;2023-02-26T00:33:29;-1.00;99.90
3156;DHT22;1588;50.892;7.082;2023-02-26T00:38:35;-0.90;99.90
3156;DHT22;1588;50.892;7.082;2023-02-26T00:43:39;-0.90;99.90
3156;DHT22;1588;50.892;7.082;2023-02-26T00:48:50;-0.90;99.90
3156;DHT22;1588;50.892;7.082;2023-02-26T00:54:00;-0.80;99.90
3156;DHT22;1588;50.892;7.082;2023-02-26T00:59:05;-0.70;99.90
3156;DHT22;1588;50.892;7.082;2023-02-26T01:04:14;-0.60;99.90
3156;DHT22;1588;50.892;7.082;2023-02-26T01:09:24;-0.60;99.90
3156;DHT22;1588;50.892;7.082;2023-02-26T01:14:27;-0.60;99.90
3156;DHT22;1588;50.892;7.082;2023-02-26T01:19:38;-0.70;99.90
3156;DHT22;1588;50.892;7.082;2023-02-26T01:24:42;-0.80;99.90
3156;DHT22;1588;50.892;7.082;2023-02-26T01:29:46;-0.90;99.90
3156;DHT22;1588;50.892;7.082;2023-02-26T01:35:03;-1.00;99.90
3156;DHT22;1588;50.892;7.082;2023-02-26T01:40:30;-1.20;99.90
3156;DHT22;1588;50.892;7.082;2023-02-26T01:45:54;-1.30;99.90
3156;DHT22;1588;50.892;7.082;2023-02-26T01:50:57;-1.40;99.90
3156;DHT22;1588;50.892;7.082;2023-02-26T01:56:02;-1.60;99.90
3156;DHT22;1588;50.892;7.082;2023-02-26T02:01:06;-1.60;99.90
3156;DHT22;1588;50.892;7.082;2023-02-26T02:06:15;-1.70;99.90
3156;DHT22;1588;50.892;7.082;2023-02-26T02:11:19;-1.70;99.90
3156;DHT22;1588;50.892;7.082;2023-02-26T02:16:30;-1.70;99.90
3156;DHT22;1588;50.892;7.082;2023-02-26T02:22:00;-1.80;99.90
3156;DHT22;1588;50.892;7.082;2023-02-26T02:27:12;-1.90;99.90
3156;DHT22;1588;50.892;7.082;2023-02-26T02:32:26;-1.80;99.90
3156;DHT22;1588;50.892;7.082;2023-02-26T02:37:33;-1.70;99.90
3156;DHT22;1588;50.892;7.082;2023-02-26T02:42:40;-1.60;99.90
3156;DHT22;1588;50.892;7.082;2023-02-26T02:47:47;-1.60;99.90
3156;DHT22;1588;50.892;7.082;2023-02-26T02:52:53;-1.50;99.90
3156;DHT22;1588;50.892;7.082;2023-02-26T02:58:00;-1.50;99.90
3156;DHT22;1588;50.892;7.082;2023-02-26T03:03:10;-1.50;99.90
3156;DHT22;1588;50.892;7.082;2023-02-26T03:08:18;-1.50;99.90
3156;DHT22;1588;50.892;7.082;2023-02-26T03:13:23;-1.60;99.90
3156;DHT22;1588;50.892;7.082;2023-02-26T03:18:36;-1.50;99.90
3156;DHT22;1588;50.892;7.082;2023-02-26T03:23:45;-1.50;99.90
3156;DHT22;1588;50.892;7.082;2023-02-26T03:28:53;-1.40;99.90
3156;DHT22;1588;50.892;7.082;2023-02-26T03:33:59;-1.50;99.90
3156;DHT22;1588;50.892;7.082;2023-02-26T03:39:06;-1.50;99.90
3156;DHT22;1588;50.892;7.082;2023-02-26T03:44:17;-1.60;99.90
3156;DHT22;1588;50.892;7.082;2023-02-26T03:49:25;-1.70;99.90
3156;DHT22;1588;50.892;7.082;2023-02-26T03:54:31;-1.70;99.90
3156;DHT22;1588;50.892;7.082;2023-02-26T03:59:34;-1.70;99.90
3156;DHT22;1588;50.892;7.082;2023-02-26T04:04:43;-1.70;99.90
3156;DHT22;1588;50.892;7.082;2023-02-26T04:09:47;-1.60;99.90
3156;DHT22;1588;50.892;7.082;2023-02-26T04:14:50;-1.60;99.90
3156;DHT22;1588;50.892;7.082;2023-02-26T04:19:53;-1.60;99.90
3156;DHT22;1588;50.892;7.082;2023-02-26T04:24:55;-1.60;99.90
3156;DHT22;1588;50.892;7.082;2023-02-26T04:29:58;-1.70;99.90
3156;DHT22;1588;50.892;7.082;2023-02-26T04:35:07;-1.70;99.90
3156;DHT22;1588;50.892;7.082;2023-02-26T04:40:14;-1.70;99.90
3156;DHT22;1588;50.892;7.082;2023-02-26T04:45:16;-1.80;99.90
3156;DHT22;1588;50.892;7.082;2023-02-26T04:50:23;-1.80;99.90
3156;DHT22;1588;50.892;7.082;2023-02-26T04:55:25;-1.90;99.90
3156;DHT22;1588;50.892;7.082;2023-02-26T05:00:28;-1.90;99.90
3156;DHT22;1588;50.892;7.082;2023-02-26T05:05:32;-2.00;99.90
3156;DHT22;1588;50.892;7.082;2023-02-26T05:10:37;-2.00;99.90
3156;DHT22;1588;50.892;7.082;2023-02-26T05:15:39;-2.10;99.90
3156;DHT22;1588;50.892;7.082;2023-02-26T05:20:43;-2.10;99.90
3156;DHT22;1588;50.892;7.082;2023-02-26T05:25:45;-2.10;99.90
3156;DHT22;1588;50.892;7.082;2023-02-26T05:30:47;-2.10;99.90
3156;DHT22;1588;50.892;7.082;2023-02-26T05:35:55;-2.00;99.90
3156;DHT22;1588;50.892;7.082;2023-02-26T05:40:58;-1.80;99.90
3156;DHT22;1588;50.892;7.082;2023-02-26T05:46:04;-1.90;99.90
3156;DHT22;1588;50.892;7.082;2023-02-26T05:51:10;-2.00;99.90
3156;DHT22;1588;50.892;7.082;2023-02-26T05:56:15;-2.00;99.90
3156;DHT22;1588;50.892;7.082;2023-02-26T06:01:18;-2.00;99.90
3156;DHT22;1588;50.892;7.082;2023-02-26T06:06:21;-2.00;99.90
3156;DHT22;1588;50.892;7.082;2023-02-26T06:11:28;-2.00;99.90
3156;DHT22;1588;50.892;7.082;2023-02-26T06:16:31;-2.00;99.90
3156;DHT22;1588;50.892;7.082;2023-02-26T06:21:37;-1.90;99.90
3156;DHT22;1588;50.892;7.082;2023-02-26T06:26:39;-1.80;99.90
3156;DHT22;1588;50.892;7.082;2023-02-26T06:31:47;-1.80;99.90
3156;DHT22;1588;50.892;7.082;2023-02-26T06:36:50;-1.70;99.90
3156;DHT22;1588;50.892;7.082;2023-02-26T06:41:55;-1.60;99.90
3156;DHT22;1588;50.892;7.082;2023-02-26T06:46:57;-1.70;99.90
3156;DHT22;1588;50.892;7.082;2023-02-26T06:52:02;-1.80;99.90
3156;DHT22;1588;50.892;7.082;2023-02-26T06:57:04;-1.80;99.90
3156;DHT22;1588;50.892;7.082;2023-02-26T07:02:15;-1.80;99.90
3156;DHT22;1588;50.892;7.082;2023-02-26T07:07:18;-1.70;99.90
3156;DHT22;1588;50.892;7.082;2023-02-26T07:12:24;-1.60;99.90
3156;DHT22;1588;50.892;7.082;2023-02-26T07:17:26;-1.50;99.90
3156;DHT22;1588;50.892;7.082;2023-02-26T07:22:29;-1.30;99.90
3156;DHT22;1588;50.892;7.082;2023-02-26T07:27:39;-1.00;99.90
3156;DHT22;1588;50.892;7.082;2023-02-26T07:32:41;-0.90;99.90
3156;DHT22;1588;50.892;7.082;2023-02-26T07:37:45;-0.80;99.90
3156;DHT22;1588;50.892;7.082;2023-02-26T07:42:47;-0.60;99.90
3156;DHT22;1588;50.892;7.082;2023-02-26T07:47:56;-0.50;99.90
3156;DHT22;1588;50.892;7.082;2023-02-26T07:53:00;-0.40;99.90
3156;DHT22;1588;50.892;7.082;2023-02-26T07:58:02;-0.20;99.90
3156;DHT22;1588;50.892;7.082;2023-02-26T08:03:05;1.10;99.90
3156;DHT22;1588;50.892;7.082;2023-02-26T08:08:09;7.00;99.90
3156;DHT22;1588;50.892;7.082;2023-02-26T08:13:11;10.50;99.90
3156;DHT22;1588;50.892;7.082;2023-02-26T08:18:14;11.90;99.90
3156;DHT22;1588;50.892;7.082;2023-02-26T08:23:17;10.40;99.90
3156;DHT22;1588;50.892;7.082;2023-02-26T08:28:20;9.20;99.90
3156;DHT22;1588;50.892;7.082;2023-02-26T08:33:25;11.80;99.90
3156;DHT22;1588;50.892;7.082;2023-02-26T08:38:29;13.50;99.90
3156;DHT22;1588;50.892;7.082;2023-02-26T08:43:31;13.40;99.40
3156;DHT22;1588;50.892;7.082;2023-02-26T08:48:34;14.50;98.50
3156;DHT22;1588;50.892;7.082;2023-02-26T08:53:37;14.10;97.40
3156;DHT22;1588;50.892;7.082;2023-02-26T08:58:40;12.00;97.70
3156;DHT22;1588;50.892;7.082;2023-02-26T09:03:42;9.90;99.90
3156;DHT22;1588;50.892;7.082;2023-02-26T09:08:46;11.40;99.90
3156;DHT22;1588;50.892;7.082;2023-02-26T09:13:49;12.20;99.50
3156;DHT22;1588;50.892;7.082;2023-02-26T09:18:52;11.10;98.90
3156;DHT22;1588;50.892;7.082;2023-02-26T09:23:57;8.60;99.90
3156;DHT22;1588;50.892;7.082;2023-02-26T09:28:59;8.60;99.90
3156;DHT22;1588;50.892;7.082;2023-02-26T09:34:01;7.50;99.90
3156;DHT22;1588;50.892;7.082;2023-02-26T09:39:05;9.10;99.90
3156;DHT22;1588;50.892;7.082;2023-02-26T09:44:19;12.80;98.40
3156;DHT22;1588;50.892;7.082;2023-02-26T09:49:33;12.20;97.70
3156;DHT22;1588;50.892;7.082;2023-02-26T09:54:44;12.10;95.90
3156;DHT22;1588;50.892;7.082;2023-02-26T09:59:47;12.30;96.70
3156;DHT22;1588;50.892;7.082;2023-02-26T10:04:52;12.10;94.90
3156;DHT22;1588;50.892;7.082;2023-02-26T10:10:08;10.20;95.80
3156;DHT22;1588;50.892;7.082;2023-02-26T10:15:15;8.20;97.90
3156;DHT22;1588;50.892;7.082;2023-02-26T10:20:22;5.80;99.90
3156;DHT22;1588;50.892;7.082;2023-02-26T10:25:30;5.00;99.90
3156;DHT22;1588;50.892;7.082;2023-02-26T10:30:36;6.90;99.90
3156;DHT22;1588;50.892;7.082;2023-02-26T10:35:48;7.60;99.90
3156;DHT22;1588;50.892;7.082;2023-02-26T10:40:58;7.00;99.90
3156;DHT22;1588;50.892;7.082;2023-02-26T10:46:13;5.70;99.90
3156;DHT22;1588;50.892;7.082;2023-02-26T10:51:20;6.30;99.90
3156;DHT22;1588;50.892;7.082;2023-02-26T10:56:28;6.00;99.90
3156;DHT22;1588;50.892;7.082;2023-02-26T11:01:30;6.00;99.90
3156;DHT22;1588;50.892;7.082;2023-02-26T11:06:36;4.80;99.90
3156;DHT22;1588;50.892;7.082;2023-02-26T11:11:46;4.30;99.90
3156;DHT22;1588;50.892;7.082;2023-02-26T11:16:51;3.80;99.90
3156;DHT22;1588;50.892;7.082;2023-02-26T11:21:54;3.60;99.90
3156;DHT22;1588;50.892;7.082;2023-02-26T11:27:00;3.60;99.90
3156;DHT22;1588;50.892;7.082;2023-02-26T11:32:04;4.30;99.90
3156;DHT22;1588;50.892;7.082;2023-02-26T11:37:08;5.00;99.90
3156;DHT22;1588;50.892;7.082;2023-02-26T11:42:12;6.20;99.90
3156;DHT22;1588;50.892;7.082;2023-02-26T11:47:18;4.80;99.90
3156;DHT22;1588;50.892;7.082;2023-02-26T11:52:27;4.60;99.90
3156;DHT22;1588;50.892;7.082;2023-02-26T11:57:32;4.40;99.90
3156;DHT22;1588;50.892;7.082;2023-02-26T12:02:39;4.20;99.90
3156;DHT22;1588;50.892;7.082;2023-02-26T12:07:41;4.10;99.90
3156;DHT22;1588;50.892;7.082;2023-02-26T12:13:07;4.30;99.90
3156;DHT22;1588;50.892;7.082;2023-02-26T12:18:25;4.60;99.90
3156;DHT22;1588;50.892;7.082;2023-02-26T12:23:56;5.80;99.90
3156;DHT22;1588;50.892;7.082;2023-02-26T12:29:30;5.30;99.90
3156;DHT22;1588;50.892;7.082;2023-02-26T12:34:50;4.80;99.90
3156;DHT22;1588;50.892;7.082;2023-02-26T12:40:07;4.20;99.90
3156;DHT22;1588;50.892;7.082;2023-02-26T12:45:26;4.00;99.90
3156;DHT22;1588;50.892;7.082;2023-02-26T12:50:50;4.70;99.90
3156;DHT22;1588;50.892;7.082;2023-02-26T12:56:07;5.30;99.90
3156;DHT22;1588;50.892;7.082;2023-02-26T13:01:28;5.20;99.90
3156;DHT22;1588;50.892;7.082;2023-02-26T13:06:57;5.00;99.90
3156;DHT22;1588;50.892;7.082;2023-02-26T13:12:14;4.70;99.90
3156;DHT22;1588;50.892;7.082;2023-02-26T13:17:27;4.60;99.90
3156;DHT22;1588;50.892;7.082;2023-02-26T13:22:38;4.90;99.90
3156;DHT22;1588;50.892;7.082;2023-02-26T13:27:42;5.20;99.90
3156;DHT22;1588;50.892;7.082;2023-02-26T13:32:55;5.30;99.90
3156;DHT22;1588;50.892;7.082;2023-02-26T13:38:04;5.00;99.90
3156;DHT22;1588;50.892;7.082;2023-02-26T13:43:17;5.00;99.90
3156;DHT22;1588;50.892;7.082;2023-02-26T13:48:31;5.10;99.90
3156;DHT22;1588;50.892;7.082;2023-02-26T13:53:56;5.10;99.90
3156;DHT22;1588;50.892;7.082;2023-02-26T13:59:03;5.30;99.90
3156;DHT22;1588;50.892;7.082;2023-02-26T14:04:22;5.30;99.90
3156;DHT22;1588;50.892;7.082;2023-02-26T14:09:44;5.00;99.90
3156;DHT22;1588;50.892;7.082;2023-02-26T14:15:17;4.70;99.90
3156;DHT22;1588;50.892;7.082;2023-02-26T14:20:25;4.70;99.90
3156;DHT22;1588;50.892;7.082;2023-02-26T14:25:32;4.90;99.90
3156;DHT22;1588;50.892;7.082;2023-02-26T14:30:35;4.70;99.90
3156;DHT22;1588;50.892;7.082;2023-02-26T14:35:51;4.90;99.90
3156;DHT22;1588;50.892;7.082;2023-02-26T14:40:58;5.00;99.90
3156;DHT22;1588;50.892;7.082;2023-02-26T14:46:03;4.60;99.90
3156;DHT22;1588;50.892;7.082;2023-02-26T14:51:15;4.60;99.90
3156;DHT22;1588;50.892;7.082;2023-02-26T14:56:27;4.80;99.90
3156;DHT22;1588;50.892;7.082;2023-02-26T15:01:45;4.90;99.90
3156;DHT22;1588;50.892;7.082;2023-02-26T15:07:17;4.70;99.90
3156;DHT22;1588;50.892;7.082;2023-02-26T15:12:32;4.50;99.90
3156;DHT22;1588;50.892;7.082;2023-02-26T15:18:00;4.40;99.90
3156;DHT22;1588;50.892;7.082;2023-02-26T15:23:18;4.50;99.90
3156;DHT22;1588;50.892;7.082;2023-02-26T15:28:26;4.60;99.90
3156;DHT22;1588;50.892;7.082;2023-02-26T15:33:29;4.70;99.90
3156;DHT22;1588;50.892;7.082;2023-02-26T15:38:41;4.70;99.90
3156;DHT22;1588;50.892;7.082;2023-02-26T15:43:48;4.60;99.90
3156;DHT22;1588;50.892;7.082;2023-02-26T15:48:51;4.50;99.90
3156;DHT22;1588;50.892;7.082;2023-02-26T15:53:57;4.40;99.90
3156;DHT22;1588;50.892;7.082;2023-02-26T15:59:08;4.30;99.90
3156;DHT22;1588;50.892;7.082;2023-02-26T16:04:19;4.30;99.90
3156;DHT22;1588;50.892;7.082;2023-02-26T16:09:27;4.20;99.90
3156;DHT22;1588;50.892;7.082;2023-02-26T16:14:43;4.00;99.90
3156;DHT22;1588;50.892;7.082;2023-02-26T16:19:49;3.90;99.90
3156;DHT22;1588;50.892;7.082;2023-02-26T16:24:56;3.90;99.90
3156;DHT22;1588;50.892;7.082;2023-02-26T16:30:00;3.80;99.90
3156;DHT22;1588;50.892;7.082;2023-02-26T16:35:10;3.70;99.90
3156;DHT22;1588;50.892;7.082;2023-02-26T16:40:21;3.50;99.90
3156;DHT22;1588;50.892;7.082;2023-02-26T16:45:44;3.50;99.90
3156;DHT22;1588;50.892;7.082;2023-02-26T16:50:57;3.50;99.90
3156;DHT22;1588;50.892;7.082;2023-02-26T16:56:14;3.30;99.90
3156;DHT22;1588;50.892;7.082;2023-02-26T17:01:19;3.00;99.90
3156;DHT22;1588;50.892;7.082;2023-02-26T17:06:23;2.90;99.90
3156;DHT22;1588;50.892;7.082;2023-02-26T17:11:28;2.80;99.90
3156;DHT22;1588;50.892;7.082;2023-02-26T17:16:35;2.80;99.90
3156;DHT22;1588;50.892;7.082;2023-02-26T17:21:47;2.70;99.90
3156;DHT22;1588;50.892;7.082;2023-02-26T17:26:51;2.50;99.90
3156;DHT22;1588;50.892;7.082;2023-02-26T17:31:53;2.30;99.90
3156;DHT22;1588;50.892;7.082;2023-02-26T17:36:57;2.30;99.90
3156;DHT22;1588;50.892;7.082;2023-02-26T17:42:11;2.20;99.90
3156;DHT22;1588;50.892;7.082;2023-02-26T17:47:15;2.00;99.90
3156;DHT22;1588;50.892;7.082;2023-02-26T17:52:18;2.10;99.90
3156;DHT22;1588;50.892;7.082;2023-02-26T17:57:22;2.10;99.90
3156;DHT22;1588;50.892;7.082;2023-02-26T18:02:25;1.90;99.90
3156;DHT22;1588;50.892;7.082;2023-02-26T18:07:27;1.70;99.90
3156;DHT22;1588;50.892;7.082;2023-02-26T18:12:31;1.60;99.90
3156;DHT22;1588;50.892;7.082;2023-02-26T18:17:33;1.40;99.90
3156;DHT22;1588;50.892;7.082;2023-02-26T18:22:35;1.20;99.90
3156;DHT22;1588;50.892;7.082;2023-02-26T18:27:41;1.00;99.90
3156;DHT22;1588;50.892;7.082;2023-02-26T18:32:43;0.80;99.90
3156;DHT22;1588;50.892;7.082;2023-02-26T18:37:57;0.50;99.90
3156;DHT22;1588;50.892;7.082;2023-02-26T18:43:00;0.20;99.90
3156;DHT22;1588;50.892;7.082;2023-02-26T18:48:03;0.00;99.90
3156;DHT22;1588;50.892;7.082;2023-02-26T18:53:05;-0.20;99.90
3156;DHT22;1588;50.892;7.082;2023-02-26T18:58:12;-0.30;99.90
3156;DHT22;1588;50.892;7.082;2023-02-26T19:03:17;-0.50;99.90
3156;DHT22;1588;50.892;7.082;2023-02-26T19:08:21;-0.50;99.90
3156;DHT22;1588;50.892;7.082;2023-02-26T19:13:24;-0.70;99.90
3156;DHT22;1588;50.892;7.082;2023-02-26T19:18:26;-0.80;99.90
3156;DHT22;1588;50.892;7.082;2023-02-26T19:23:29;-0.80;99.90
3156;DHT22;1588;50.892;7.082;2023-02-26T19:28:32;-1.00;99.90
3156;DHT22;1588;50.892;7.082;2023-02-26T19:33:34;-1.10;99.90
3156;DHT22;1588;50.892;7.082;2023-02-26T19:38:37;-1.10;99.90
3156;DHT22;1588;50.892;7.082;2023-02-26T19:43:40;-1.10;99.90
3156;DHT22;1588;50.892;7.082;2023-02-26T19:48:43;-1.10;99.90
3156;DHT22;1588;50.892;7.082;2023-02-26T19:53:45;-1.00;99.90
3156;DHT22;1588;50.892;7.082;2023-02-26T19:58:49;-1.10;99.90
3156;DHT22;1588;50.892;7.082;2023-02-26T20:03:51;-1.20;99.90
3156;DHT22;1588;50.892;7.082;2023-02-26T20:08:54;-1.30;99.90
3156;DHT22;1588;50.892;7.082;2023-02-26T20:13:57;-1.30;99.90
3156;DHT22;1588;50.892;7.082;2023-02-26T20:19:00;-1.40;99.90
3156;DHT22;1588;50.892;7.082;2023-02-26T20:24:04;-1.50;99.90
3156;DHT22;1588;50.892;7.082;2023-02-26T20:29:08;-1.60;99.90
3156;DHT22;1588;50.892;7.082;2023-02-26T20:34:10;-1.60;99.90
3156;DHT22;1588;50.892;7.082;2023-02-26T20:39:14;-1.60;99.90
3156;DHT22;1588;50.892;7.082;2023-02-26T20:44:19;-1.70;99.90
3156;DHT22;1588;50.892;7.082;2023-02-26T20:49:21;-1.70;99.90
3156;DHT22;1588;50.892;7.082;2023-02-26T20:54:26;-1.80;99.90
3156;DHT22;1588;50.892;7.082;2023-02-26T20:59:29;-1.90;99.90
3156;DHT22;1588;50.892;7.082;2023-02-26T21:04:32;-1.90;99.90
3156;DHT22;1588;50.892;7.082;2023-02-26T21:09:34;-1.90;99.90
3156;DHT22;1588;50.892;7.082;2023-02-26T21:14:37;-1.90;99.90
3156;DHT22;1588;50.892;7.082;2023-02-26T21:19:40;-1.80;99.90
3156;DHT22;1588;50.892;7.082;2023-02-26T21:24:43;-1.70;99.90
3156;DHT22;1588;50.892;7.082;2023-02-26T21:29:53;-1.50;99.90
3156;DHT22;1588;50.892;7.082;2023-02-26T21:34:55;-1.40;99.90
3156;DHT22;1588;50.892;7.082;2023-02-26T21:39:58;-1.30;99.90
3156;DHT22;1588;50.892;7.082;2023-02-26T21:45:02;-1.20;99.90
3156;DHT22;1588;50.892;7.082;2023-02-26T21:50:06;-1.20;99.90
3156;DHT22;1588;50.892;7.082;2023-02-26T21:55:09;-1.30;99.90
3156;DHT22;1588;50.892;7.082;2023-02-26T22:00:15;-1.30;99.90
3156;DHT22;1588;50.892;7.082;2023-02-26T22:05:18;-1.30;99.90
3156;DHT22;1588;50.892;7.082;2023-02-26T22:10:20;-1.40;99.90
3156;DHT22;1588;50.892;7.082;2023-02-26T22:15:24;-1.50;99.90
3156;DHT22;1588;50.892;7.082;2023-02-26T22:20:26;-1.50;99.90
3156;DHT22;1588;50.892;7.082;2023-02-26T22:25:30;-1.60;99.90
3156;DHT22;1588;50.892;7.082;2023-02-26T22:30:35;-1.60;99.90
3156;DHT22;1588;50.892;7.082;2023-02-26T22:35:40;-1.80;99.90
3156;DHT22;1588;50.892;7.082;2023-02-26T22:40:42;-1.80;99.90
3156;DHT22;1588;50.892;7.082;2023-02-26T22:45:46;-1.90;99.90
3156;DHT22;1588;50.892;7.082;2023-02-26T22:50:50;-1.80;99.90
3156;DHT22;1588;50.892;7.082;2023-02-26T22:55:52;-1.70;99.90
3156;DHT22;1588;50.892;7.082;2023-02-26T23:01:01;-1.60;99.90
3156;DHT22;1588;50.892;7.082;2023-02-26T23:06:05;-1.60;99.90
3156;DHT22;1588;50.892;7.082;2023-02-26T23:11:07;-1.70;99.90
3156;DHT22;1588;50.892;7.082;2023-02-26T23:16:11;-1.80;99.90
3156;DHT22;1588;50.892;7.082;2023-02-26T23:21:15;-2.00;99.90
3156;DHT22;1588;50.892;7.082;2023-02-26T23:26:17;-2.10;99.90
3156;DHT22;1588;50.892;7.082;2023-02-26T23:31:21;-2.20;99.90
3156;DHT22;1588;50.892;7.082;2023-02-26T23:36:27;-2.30;99.90
3156;DHT22;1588;50.892;7.082;2023-02-26T23:41:30;-2.40;99.90
3156;DHT22;1588;50.892;7.082;2023-02-26T23:46:34;-2.50;99.90
3156;DHT22;1588;50.892;7.082;2023-02-26T23:51:37;-2.50;99.90
3156;DHT22;1588;50.892;7.082;2023-02-26T23:56:40;-2.70;99.90
